Time;durP1;ratioP1;P1;durP2;ratioP2;P2;SDS_P1;SDS_P2;PMS_P1;PMS_P2;Temp;Humidity;BMP_temperature;BMP_pressure;BME280_temperature;BME280_humidity;BME280_pressure;Samples;Min_cycle;Max_cycle;Signal;HPM_P1;HPM_P2
2022/09/28 00:03:57;;;;;;;5.90;3.40;;;;;;;;;;10080658;28;20059;-67
2022/09/28 00:08:56;;;;;;;4.50;3.40;;;;;;;;;;10078046;28;20540;-68
2022/09/28 00:13:57;;;;;;;5.30;3.45;;;;;;;;;;10079925;28;20079;-68
2022/09/28 00:18:55;;;;;;;4.03;3.72;;;;;;;;;;10079784;28;20083;-68
2022/09/28 00:24:13;;;;;;;3.88;3.42;;;;;;;;;;10083757;28;20083;-68
2022/09/28 00:29:18;;;;;;;4.15;3.85;;;;;;;;;;10073769;28;20113;-67
2022/09/28 00:34:16;;;;;;;4.65;3.70;;;;;;;;;;10079057;28;20083;-67
2022/09/28 00:39:15;;;;;;;5.78;4.47;;;;;;;;;;10075148;28;20087;-68
2022/09/28 00:44:34;;;;;;;5.30;3.28;;;;;;;;;;10077230;28;20075;-67
2022/09/28 00:49:33;;;;;;;4.93;3.40;;;;;;;;;;10076766;28;20576;-67
2022/09/28 00:54:32;;;;;;;3.90;3.50;;;;;;;;;;10084061;28;20093;-67
2022/09/28 00:59:32;;;;;;;4.28;3.10;;;;;;;;;;10084361;28;20079;-67
2022/09/28 01:04:31;;;;;;;5.00;3.33;;;;;;;;;;10083553;28;20075;-67
2022/09/28 01:09:30;;;;;;;3.40;3.10;;;;;;;;;;10082139;28;20055;-68
2022/09/28 01:14:28;;;;;;;3.42;3.10;;;;;;;;;;10082594;28;20083;-68
2022/09/28 01:19:37;;;;;;;3.25;2.95;;;;;;;;;;10082171;28;20055;-68
2022/09/28 01:24:40;;;;;;;3.20;2.90;;;;;;;;;;10080540;28;20059;-68
2022/09/28 01:29:52;;;;;;;3.35;3.03;;;;;;;;;;10080522;28;20059;-68
2022/09/28 01:34:54;;;;;;;2.90;2.70;;;;;;;;;;10070154;28;20086;-67
2022/09/28 01:39:54;;;;;;;4.32;3.08;;;;;;;;;;10085246;28;20083;-67
2022/09/28 01:44:56;;;;;;;3.67;2.67;;;;;;;;;;10078606;28;20124;-67
2022/09/28 01:49:58;;;;;;;2.58;2.22;;;;;;;;;;10080682;28;20077;-67
2022/09/28 01:54:58;;;;;;;3.72;2.53;;;;;;;;;;10080409;28;20474;-66
2022/09/28 02:00:00;;;;;;;3.17;2.55;;;;;;;;;;10077738;28;20082;-67
2022/09/28 02:05:02;;;;;;;2.88;2.67;;;;;;;;;;10079645;28;20567;-67
2022/09/28 02:10:02;;;;;;;2.47;2.28;;;;;;;;;;10075912;28;20177;-66
2022/09/28 02:15:07;;;;;;;3.03;2.58;;;;;;;;;;10075860;28;20090;-67
2022/09/28 02:20:06;;;;;;;3.13;2.50;;;;;;;;;;10074977;28;20070;-67
2022/09/28 02:25:08;;;;;;;3.97;2.40;;;;;;;;;;10069846;28;20533;-67
2022/09/28 02:30:09;;;;;;;3.50;2.95;;;;;;;;;;10080383;28;20090;-67
2022/09/28 02:35:08;;;;;;;6.03;2.80;;;;;;;;;;10079064;28;20091;-67
2022/09/28 02:40:12;;;;;;;3.53;2.95;;;;;;;;;;10080177;28;20047;-68
2022/09/28 02:45:15;;;;;;;7.70;4.40;;;;;;;;;;10070730;28;20091;-68
2022/09/28 02:50:18;;;;;;;7.85;3.85;;;;;;;;;;10072087;28;20094;-68
2022/09/28 02:55:19;;;;;;;4.57;3.80;;;;;;;;;;10073342;28;20090;-67
2022/09/28 03:00:21;;;;;;;4.40;4.00;;;;;;;;;;10078130;28;20425;-66
2022/09/28 03:05:22;;;;;;;5.68;4.35;;;;;;;;;;10086122;28;20082;-67
2022/09/28 03:10:24;;;;;;;5.15;4.65;;;;;;;;;;10084011;28;20057;-67
2022/09/28 03:15:25;;;;;;;5.10;4.70;;;;;;;;;;10082210;28;20086;-67
2022/09/28 03:20:25;;;;;;;8.60;4.97;;;;;;;;;;10077553;28;20095;-67
2022/09/28 03:25:23;;;;;;;11.75;7.90;;;;;;;;;;10101265;28;20074;-66
2022/09/28 03:30:22;;;;;;;6.88;5.38;;;;;;;;;;10079619;28;20085;-66
2022/09/28 03:35:21;;;;;;;6.10;5.60;;;;;;;;;;10078192;28;20083;-66
2022/09/28 03:40:20;;;;;;;4.60;4.15;;;;;;;;;;10080956;28;20063;-67
2022/09/28 03:45:18;;;;;;;5.53;4.13;;;;;;;;;;10083158;28;20556;-67
2022/09/28 03:50:18;;;;;;;4.35;3.95;;;;;;;;;;10083806;28;20057;-66
2022/09/28 03:55:19;;;;;;;5.88;3.97;;;;;;;;;;10086003;28;20085;-68
2022/09/28 04:00:18;;;;;;;4.00;3.65;;;;;;;;;;10082849;28;20078;-68
2022/09/28 04:05:16;;;;;;;5.18;4.38;;;;;;;;;;10077284;28;20077;-68
2022/09/28 04:10:15;;;;;;;8.25;7.40;;;;;;;;;;10080063;28;20054;-67
2022/09/28 04:15:14;;;;;;;5.38;4.13;;;;;;;;;;10078523;28;20075;-70
2022/09/28 04:20:13;;;;;;;5.85;4.32;;;;;;;;;;10075251;28;20093;-68
2022/09/28 04:25:25;;;;;;;4.90;4.40;;;;;;;;;;10091276;28;20513;-67
2022/09/28 04:30:25;;;;;;;6.88;4.60;;;;;;;;;;10077332;28;20094;-67
2022/09/28 04:35:23;;;;;;;4.32;3.90;;;;;;;;;;10071640;28;20075;-69
2022/09/28 04:40:22;;;;;;;3.80;3.50;;;;;;;;;;10073231;28;20075;-68
2022/09/28 04:45:21;;;;;;;4.50;3.38;;;;;;;;;;10069541;28;20087;-70
2022/09/28 04:50:22;;;;;;;3.53;3.22;;;;;;;;;;10064981;28;20082;-70
2022/09/28 04:55:39;;;;;;;3.95;3.28;;;;;;;;;;10093515;28;20568;-66
2022/09/28 05:00:37;;;;;;;3.78;3.47;;;;;;;;;;10083987;28;20082;-68
2022/09/28 05:05:46;;;;;;;3.67;3.38;;;;;;;;;;10075615;28;20197;-68
2022/09/28 05:11:00;;;;;;;;;;;;;;;;;;10083652;28;20078;-67
2022/09/28 05:15:58;;;;;;;3.83;3.45;;;;;;;;;;10091818;28;19980;-66
2022/09/28 05:21:13;;;;;;;6.55;3.72;;;;;;;;;;10085081;28;20109;-68
2022/09/28 05:26:11;;;;;;;3.53;2.95;;;;;;;;;;10083952;28;20050;-68
2022/09/28 05:31:10;;;;;;;3.35;3.05;;;;;;;;;;10082405;28;20069;-67
2022/09/28 05:36:31;;;;;;;2.88;2.67;;;;;;;;;;10075058;28;20101;-68
2022/09/28 05:41:29;;;;;;;4.90;2.90;;;;;;;;;;10085536;28;20090;-69
2022/09/28 05:46:27;;;;;;;4.93;3.00;;;;;;;;;;10084232;28;20051;-69
2022/09/28 05:51:30;;;;;;;3.78;3.00;;;;;;;;;;10087704;28;20082;-68
2022/09/28 05:56:29;;;;;;;4.88;4.40;;;;;;;;;;10092418;28;20087;-67
2022/09/28 06:01:28;;;;;;;4.57;3.05;;;;;;;;;;10088917;28;20494;-68
2022/09/28 06:06:30;;;;;;;4.50;3.75;;;;;;;;;;10089764;28;20086;-68
2022/09/28 06:11:28;;;;;;;4.97;3.13;;;;;;;;;;10080506;28;20130;-67
2022/09/28 06:16:28;;;;;;;13.85;5.47;;;;;;;;;;10094493;28;20484;-67
2022/09/28 06:21:27;;;;;;;6.25;4.00;;;;;;;;;;10086881;28;20082;-67
2022/09/28 06:26:26;;;;;;;4.55;3.05;;;;;;;;;;10096917;28;20521;-67
2022/09/28 06:31:25;;;;;;;6.32;3.72;;;;;;;;;;10077428;28;20074;-67
2022/09/28 06:36:24;;;;;;;4.53;3.83;;;;;;;;;;10081445;28;20149;-67
2022/09/28 06:41:23;;;;;;;3.10;2.80;;;;;;;;;;10106147;28;20047;-67
2022/09/28 06:46:22;;;;;;;4.28;3.08;;;;;;;;;;10105597;28;20086;-67
2022/09/28 06:51:21;;;;;;;5.15;2.58;;;;;;;;;;10088938;28;20696;-68
2022/09/28 06:56:24;;;;;;;4.13;2.53;;;;;;;;;;10078330;28;20078;-68
2022/09/28 07:01:30;;;;;;;4.10;2.45;;;;;;;;;;10095469;28;20079;-68
2022/09/28 07:06:38;;;;;;;3.72;2.47;;;;;;;;;;10108947;28;20054;-68
2022/09/28 07:12:12;;;;;;;7.15;2.95;;;;;;;;;;10074713;28;20113;-68
2022/09/28 07:17:18;;;;;;;6.13;2.45;;;;;;;;;;10072335;28;20524;-68
2022/09/28 07:22:17;;;;;;;8.65;3.55;;;;;;;;;;10086596;28;20082;-68
2022/09/28 07:27:22;;;;;;;8.60;2.88;;;;;;;;;;10096311;28;20115;-69
2022/09/28 07:32:42;;;;;;;6.25;3.05;;;;;;;;;;10080576;28;20588;-68
2022/09/28 07:38:00;;;;;;;3.72;2.40;;;;;;;;;;10088346;28;20078;-68
2022/09/28 07:43:03;;;;;;;2.78;2.10;;;;;;;;;;10090060;28;20078;-68
2022/09/28 07:48:03;;;;;;;6.80;2.88;;;;;;;;;;10082094;28;20090;-69
2022/09/28 07:53:21;;;;;;;4.63;2.00;;;;;;;;;;10093962;28;20086;-68
2022/09/28 07:58:46;;;;;;;3.58;2.97;;;;;;;;;;10083416;28;20094;-68
2022/09/28 08:04:05;;;;;;;10.63;6.68;;;;;;;;;;10084053;28;20086;-68
2022/09/28 08:09:05;;;;;;;3.22;2.17;;;;;;;;;;10084128;28;20091;-68
2022/09/28 08:14:41;;;;;;;7.07;2.45;;;;;;;;;;9927841;29;20144;-69
2022/09/28 08:25:48;;;;;;;7.25;4.45;;;;;;;;;;9949150;29;20537;-66
2022/09/28 08:30:49;;;;;;;10.90;3.78;;;;;;;;;;10038967;28;20082;-67
2022/09/28 08:36:09;;;;;;;7.18;3.05;;;;;;;;;;10094410;28;20477;-69
2022/09/28 08:41:34;;;;;;;5.38;3.25;;;;;;;;;;10093595;28;20089;-68
2022/09/28 08:46:43;;;;;;;3.95;2.85;;;;;;;;;;10082626;28;20055;-68
2022/09/28 08:52:05;;;;;;;3.35;2.45;;;;;;;;;;10092426;28;20496;-69
2022/09/28 08:57:24;;;;;;;2.70;2.00;;;;;;;;;;10090663;28;20097;-69
2022/09/28 09:02:25;;;;;;;3.95;1.80;;;;;;;;;;10085714;28;20075;-68
2022/09/28 09:08:02;;;;;;;3.40;2.17;;;;;;;;;;10081006;28;20087;-68
2022/09/28 09:13:05;;;;;;;4.63;2.20;;;;;;;;;;10073662;28;20055;-69
2022/09/28 09:18:15;;;;;;;6.13;1.88;;;;;;;;;;10089811;28;20113;-68
2022/09/28 09:23:34;;;;;;;4.03;2.03;;;;;;;;;;10085010;28;20407;-68
2022/09/28 09:28:42;;;;;;;5.35;1.95;;;;;;;;;;10074466;28;20051;-70
2022/09/28 09:33:52;;;;;;;3.75;1.80;;;;;;;;;;10077687;28;20059;-69
2022/09/28 09:39:18;;;;;;;6.93;2.10;;;;;;;;;;10079722;28;20082;-69
2022/09/28 09:44:44;;;;;;;5.20;1.63;;;;;;;;;;10082488;28;20079;-69
2022/09/28 09:50:11;;;;;;;6.20;1.88;;;;;;;;;;10071296;28;20098;-68
2022/09/28 09:55:14;;;;;;;4.18;1.95;;;;;;;;;;10081475;28;20086;-69
2022/09/28 10:00:25;;;;;;;3.83;2.20;;;;;;;;;;10072767;28;20086;-67
2022/09/28 10:05:36;;;;;;;3.40;1.77;;;;;;;;;;10075194;28;20055;-68
2022/09/28 10:10:38;;;;;;;5.40;2.40;;;;;;;;;;10072578;28;20618;-68
2022/09/28 10:15:50;;;;;;;4.72;2.30;;;;;;;;;;10093516;28;20505;-66
2022/09/28 10:20:59;;;;;;;6.30;1.80;;;;;;;;;;10094683;28;20062;-68
2022/09/28 10:26:08;;;;;;;4.28;1.90;;;;;;;;;;10085129;28;20046;-69
2022/09/28 10:31:25;;;;;;;2.95;1.85;;;;;;;;;;10083418;28;20083;-69
2022/09/28 10:36:26;;;;;;;2.97;1.95;;;;;;;;;;10087353;28;20079;-69
2022/09/28 10:41:26;;;;;;;2.55;1.95;;;;;;;;;;10084550;28;20082;-67
2022/09/28 10:46:28;;;;;;;3.17;1.85;;;;;;;;;;10092348;28;20485;-68
2022/09/28 10:51:39;;;;;;;3.33;2.40;;;;;;;;;;10072466;28;20082;-69
2022/09/28 10:56:40;;;;;;;3.25;2.05;;;;;;;;;;10082314;28;20529;-68
2022/09/28 11:01:46;;;;;;;5.07;1.92;;;;;;;;;;10071388;28;20086;-69
2022/09/28 11:06:45;;;;;;;8.27;2.30;;;;;;;;;;10090747;28;20078;-71
2022/09/28 11:11:45;;;;;;;3.60;1.70;;;;;;;;;;10075909;28;20540;-69
2022/09/28 11:16:44;;;;;;;8.07;1.80;;;;;;;;;;10067231;28;20091;-68
2022/09/28 11:21:44;;;;;;;5.45;2.28;;;;;;;;;;10077756;28;20070;-69
2022/09/28 11:26:46;;;;;;;5.25;2.20;;;;;;;;;;10097674;28;20085;-68
2022/09/28 11:31:53;;;;;;;7.80;3.00;;;;;;;;;;10096532;28;20079;-70
2022/09/28 11:37:12;;;;;;;5.75;2.88;;;;;;;;;;10094349;28;20097;-69
2022/09/28 11:42:17;;;;;;;5.15;2.55;;;;;;;;;;10090829;28;20521;-68
2022/09/28 11:47:36;;;;;;;4.90;3.08;;;;;;;;;;10090216;28;20090;-71
2022/09/28 11:52:39;;;;;;;4.80;2.28;;;;;;;;;;10095482;28;20472;-68
2022/09/28 11:57:40;;;;;;;5.15;2.00;;;;;;;;;;10082278;28;20078;-68
2022/09/28 12:02:41;;;;;;;8.98;1.90;;;;;;;;;;10076257;28;20055;-69
2022/09/28 12:07:43;;;;;;;8.00;2.35;;;;;;;;;;10090274;28;20059;-68
2022/09/28 12:13:04;;;;;;;7.43;2.08;;;;;;;;;;10074660;28;20075;-68
2022/09/28 12:18:05;;;;;;;3.63;2.30;;;;;;;;;;10077262;28;20086;-69
2022/09/28 12:23:05;;;;;;;3.90;2.15;;;;;;;;;;10078191;28;20059;-68
2022/09/28 12:28:07;;;;;;;3.10;1.77;;;;;;;;;;10084267;28;20051;-69
2022/09/28 12:33:10;;;;;;;3.03;1.60;;;;;;;;;;10079922;28;20090;-68
2022/09/28 12:38:16;;;;;;;6.53;1.95;;;;;;;;;;10077377;28;20082;-69
2022/09/28 12:43:28;;;;;;;8.07;2.17;;;;;;;;;;10080270;28;20078;-68
2022/09/28 12:48:36;;;;;;;4.20;1.35;;;;;;;;;;10076631;29;20085;-68
2022/09/28 12:53:49;;;;;;;8.13;2.30;;;;;;;;;;10081877;28;20078;-69
2022/09/28 12:58:59;;;;;;;3.25;2.03;;;;;;;;;;10071942;28;20086;-69
2022/09/28 13:04:04;;;;;;;6.97;2.28;;;;;;;;;;10076398;28;20086;-69
2022/09/28 13:09:11;;;;;;;3.67;1.52;;;;;;;;;;10076287;28;20085;-69
2022/09/28 13:14:21;;;;;;;4.30;2.05;;;;;;;;;;10091080;28;20075;-69
2022/09/28 13:19:24;;;;;;;8.25;2.10;;;;;;;;;;10090977;28;20356;-69
2022/09/28 13:24:25;;;;;;;8.25;3.05;;;;;;;;;;10095391;28;20078;-68
2022/09/28 13:29:33;;;;;;;4.88;2.28;;;;;;;;;;10091655;28;20548;-68
2022/09/28 13:34:34;;;;;;;6.07;1.75;;;;;;;;;;10092837;28;20467;-70
2022/09/28 13:39:47;;;;;;;6.57;3.65;;;;;;;;;;10093452;28;20078;-67
2022/09/28 13:44:58;;;;;;;3.65;2.08;;;;;;;;;;10080425;28;20078;-68
2022/09/28 13:50:02;;;;;;;3.38;2.03;;;;;;;;;;10094917;28;20078;-69
2022/09/28 13:55:14;;;;;;;5.15;3.50;;;;;;;;;;10088349;28;20081;-68
2022/09/28 14:00:17;;;;;;;3.20;1.88;;;;;;;;;;10063738;28;20493;-67
2022/09/28 14:05:33;;;;;;;3.35;2.25;;;;;;;;;;10065321;28;20074;-69
2022/09/28 14:10:53;;;;;;;10.88;4.25;;;;;;;;;;10075978;28;20083;-67
2022/09/28 14:15:52;;;;;;;8.07;3.10;;;;;;;;;;10067427;28;20788;-68
2022/09/28 14:20:58;;;;;;;3.90;2.58;;;;;;;;;;10071772;28;20075;-69
2022/09/28 14:26:02;;;;;;;2.58;1.40;;;;;;;;;;10069757;28;20079;-69
2022/09/28 14:31:01;;;;;;;;;;;;;;;;;;10077712;28;20090;-69
2022/09/28 14:36:03;;;;;;;4.53;2.25;;;;;;;;;;10078877;28;19962;-69
2022/09/28 14:41:16;;;;;;;10.35;5.05;;;;;;;;;;10073661;28;20075;-69
2022/09/28 14:46:31;;;;;;;10.52;2.90;;;;;;;;;;10074868;28;20466;-69
2022/09/28 14:51:48;;;;;;;3.15;1.65;;;;;;;;;;10073276;28;20534;-68
2022/09/28 14:56:55;;;;;;;4.88;2.40;;;;;;;;;;10086725;28;20079;-69
2022/09/28 15:01:59;;;;;;;4.07;2.28;;;;;;;;;;10090692;28;20501;-70
2022/09/28 15:06:59;;;;;;;5.05;2.53;;;;;;;;;;10080610;28;20082;-70
2022/09/28 15:12:02;;;;;;;4.15;3.13;;;;;;;;;;10088743;28;20078;-68
2022/09/28 15:17:08;;;;;;;4.18;2.70;;;;;;;;;;10086921;28;21016;-69
2022/09/28 15:22:14;;;;;;;13.32;7.15;;;;;;;;;;10086765;28;20097;-69
2022/09/28 15:27:17;;;;;;;9.10;4.32;;;;;;;;;;10080243;28;20094;-70
2022/09/28 15:32:23;;;;;;;6.72;4.60;;;;;;;;;;10085023;28;20480;-67
2022/09/28 15:37:22;;;;;;;7.82;4.13;;;;;;;;;;10088315;28;20078;-68
2022/09/28 15:42:22;;;;;;;17.27;6.57;;;;;;;;;;10088374;28;20071;-69
2022/09/28 15:47:24;;;;;;;8.57;5.15;;;;;;;;;;10078870;28;20070;-69
2022/09/28 15:52:27;;;;;;;9.43;4.40;;;;;;;;;;10079238;28;20085;-68
2022/09/28 15:57:32;;;;;;;8.00;5.05;;;;;;;;;;10081866;28;20086;-68
2022/09/28 16:02:30;;;;;;;12.20;4.85;;;;;;;;;;10078491;28;20104;-69
2022/09/28 16:07:32;;;;;;;7.32;5.15;;;;;;;;;;10081614;28;20075;-69
2022/09/28 16:12:42;;;;;;;15.38;7.07;;;;;;;;;;10081137;28;20086;-68
2022/09/28 16:17:40;;;;;;;11.23;7.70;;;;;;;;;;10082389;28;20085;-69
2022/09/28 16:22:42;;;;;;;26.88;19.15;;;;;;;;;;10083910;28;20089;-67
2022/09/28 16:27:43;;;;;;;18.88;15.60;;;;;;;;;;10078191;28;20078;-69
2022/09/28 16:32:48;;;;;;;14.25;7.20;;;;;;;;;;10083679;28;20079;-68
2022/09/28 16:37:47;;;;;;;9.27;4.85;;;;;;;;;;10083623;28;20083;-69
2022/09/28 16:42:47;;;;;;;14.85;5.57;;;;;;;;;;10069774;28;20079;-68
2022/09/28 16:47:50;;;;;;;9.48;4.45;;;;;;;;;;10074206;29;20094;-70
2022/09/28 16:58:08;;;;;;;8.98;5.20;;;;;;;;;;10091887;28;20094;-69
2022/09/28 17:03:11;;;;;;;6.10;3.10;;;;;;;;;;10081095;28;20085;-68
2022/09/28 17:08:13;;;;;;;7.00;3.43;;;;;;;;;;10085416;28;20075;-69
2022/09/28 17:13:14;;;;;;;8.10;4.00;;;;;;;;;;10079626;28;20081;-69
2022/09/28 17:18:13;;;;;;;6.40;4.32;;;;;;;;;;10081884;28;20419;-69
2022/09/28 17:23:11;;;;;;;6.95;3.38;;;;;;;;;;10083142;28;20097;-69
2022/09/28 17:28:17;;;;;;;4.05;2.85;;;;;;;;;;10082265;28;20077;-68
2022/09/28 17:33:15;;;;;;;5.10;3.17;;;;;;;;;;10081477;28;20074;-67
2022/09/28 17:38:14;;;;;;;4.55;2.40;;;;;;;;;;10075634;28;20083;-69
2022/09/28 17:43:14;;;;;;;5.68;2.83;;;;;;;;;;10073677;28;20100;-68
2022/09/28 17:48:14;;;;;;;4.07;3.08;;;;;;;;;;10082494;28;20090;-68
2022/09/28 17:53:13;;;;;;;3.05;2.28;;;;;;;;;;10083062;28;20075;-68
2022/09/28 17:58:15;;;;;;;4.60;2.20;;;;;;;;;;10089957;28;20079;-71
2022/09/28 18:03:22;;;;;;;9.30;2.40;;;;;;;;;;10085021;28;20070;-75
2022/09/28 18:08:21;;;;;;;4.35;2.58;;;;;;;;;;10086603;28;20084;-70
2022/09/28 18:13:21;;;;;;;7.55;2.85;;;;;;;;;;10081709;28;20504;-68
2022/09/28 18:18:20;;;;;;;6.68;2.50;;;;;;;;;;10080340;28;20079;-69
2022/09/28 18:23:18;;;;;;;5.63;2.95;;;;;;;;;;10080186;28;20067;-68
2022/09/28 18:28:17;;;;;;;7.85;2.85;;;;;;;;;;10079711;28;20111;-70
2022/09/28 18:33:16;;;;;;;4.00;1.95;;;;;;;;;;10086814;28;20075;-69
2022/09/28 18:38:15;;;;;;;2.88;1.92;;;;;;;;;;10087171;28;20079;-69
2022/09/28 18:43:13;;;;;;;2.70;1.75;;;;;;;;;;10090352;28;20537;-68
2022/09/28 18:48:11;;;;;;;2.47;1.63;;;;;;;;;;10088011;28;20082;-70
2022/09/28 18:53:13;;;;;;;3.55;2.13;;;;;;;;;;10089284;28;20074;-68
2022/09/28 18:58:12;;;;;;;3.92;2.00;;;;;;;;;;10086286;28;20086;-69
2022/09/28 19:03:14;;;;;;;2.88;1.70;;;;;;;;;;10082613;28;20058;-68
2022/09/28 19:08:17;;;;;;;4.37;2.00;;;;;;;;;;10090445;28;20070;-68
2022/09/28 19:13:15;;;;;;;5.18;2.22;;;;;;;;;;10087090;28;20075;-68
2022/09/28 19:18:19;;;;;;;4.47;2.55;;;;;;;;;;10077099;28;20083;-68
2022/09/28 19:23:19;;;;;;;4.47;1.70;;;;;;;;;;10083395;28;20075;-69
2022/09/28 19:28:17;;;;;;;2.55;1.60;;;;;;;;;;10087199;28;20090;-69
2022/09/28 19:33:16;;;;;;;6.90;2.60;;;;;;;;;;10082742;28;20477;-70
2022/09/28 19:38:14;;;;;;;2.47;1.80;;;;;;;;;;10091740;28;20082;-69
2022/09/28 19:43:14;;;;;;;3.58;2.03;;;;;;;;;;10095248;28;20465;-69
2022/09/28 19:48:13;;;;;;;3.33;2.00;;;;;;;;;;10087246;28;20078;-69
2022/09/28 19:53:11;;;;;;;4.57;1.70;;;;;;;;;;10079534;28;20532;-68
2022/09/28 19:58:09;;;;;;;6.30;2.05;;;;;;;;;;10083282;28;20075;-69
2022/09/28 20:03:09;;;;;;;4.85;2.50;;;;;;;;;;10082979;28;20090;-68
2022/09/28 20:08:09;;;;;;;3.45;2.20;;;;;;;;;;10082427;28;20473;-69
2022/09/28 20:13:08;;;;;;;5.40;2.70;;;;;;;;;;10089436;28;20067;-69
2022/09/28 20:18:06;;;;;;;3.17;2.05;;;;;;;;;;10089858;28;20563;-69
2022/09/28 20:23:05;;;;;;;4.95;2.42;;;;;;;;;;10075581;28;20066;-69
2022/09/28 20:28:04;;;;;;;3.35;1.70;;;;;;;;;;10089150;28;20094;-69
2022/09/28 20:33:02;;;;;;;5.05;1.98;;;;;;;;;;10087339;28;20083;-68
2022/09/28 20:38:06;;;;;;;4.25;2.10;;;;;;;;;;10088040;28;20094;-69
2022/09/28 20:43:06;;;;;;;2.95;1.90;;;;;;;;;;10077799;28;20071;-70
2022/09/28 20:48:05;;;;;;;5.07;3.22;;;;;;;;;;10063033;28;20715;-69
2022/09/28 20:53:03;;;;;;;7.53;2.75;;;;;;;;;;10098361;28;20086;-68
2022/09/28 20:58:02;;;;;;;5.25;2.08;;;;;;;;;;10097001;28;20086;-69
2022/09/28 21:03:02;;;;;;;4.38;1.75;;;;;;;;;;10088703;28;20093;-68
2022/09/28 21:08:00;;;;;;;4.25;1.55;;;;;;;;;;10088017;28;20089;-69
2022/09/28 21:12:58;;;;;;;3.83;1.52;;;;;;;;;;10076566;28;20133;-69
2022/09/28 21:17:57;;;;;;;2.85;1.83;;;;;;;;;;10076385;28;20086;-69
2022/09/28 21:22:56;;;;;;;3.65;1.48;;;;;;;;;;10073829;28;20476;-69
2022/09/28 21:27:55;;;;;;;3.72;1.70;;;;;;;;;;10074292;28;20075;-69
2022/09/28 21:32:53;;;;;;;3.40;1.80;;;;;;;;;;10079401;28;20090;-69
2022/09/28 21:37:51;;;;;;;4.65;1.88;;;;;;;;;;10077312;28;20075;-70
2022/09/28 21:42:51;;;;;;;4.30;1.75;;;;;;;;;;10077575;28;20081;-68
2022/09/28 21:47:52;;;;;;;5.30;1.65;;;;;;;;;;10088732;28;20086;-68
2022/09/28 21:52:51;;;;;;;2.42;1.60;;;;;;;;;;10079569;28;20082;-68
2022/09/28 21:57:51;;;;;;;3.05;1.95;;;;;;;;;;10076647;28;20081;-69
2022/09/28 22:02:49;;;;;;;3.90;1.60;;;;;;;;;;10077204;28;20079;-69
2022/09/28 22:07:48;;;;;;;3.25;1.80;;;;;;;;;;10081267;28;20079;-69
2022/09/28 22:12:46;;;;;;;4.57;1.73;;;;;;;;;;10074491;28;20103;-69
2022/09/28 22:17:45;;;;;;;4.03;1.95;;;;;;;;;;10081140;28;20071;-69
2022/09/28 22:22:48;;;;;;;3.40;1.85;;;;;;;;;;10078382;28;20492;-69
2022/09/28 22:27:46;;;;;;;4.60;2.28;;;;;;;;;;10077663;28;20082;-69
2022/09/28 22:32:46;;;;;;;2.40;1.80;;;;;;;;;;10061927;28;20531;-70
2022/09/28 22:37:44;;;;;;;6.13;1.60;;;;;;;;;;10079569;28;20138;-69
2022/09/28 22:42:42;;;;;;;5.00;2.08;;;;;;;;;;10077904;28;20087;-69
2022/09/28 22:47:41;;;;;;;3.35;1.77;;;;;;;;;;10082132;28;20051;-69
2022/09/28 22:52:42;;;;;;;5.93;1.83;;;;;;;;;;10080665;28;20079;-69
2022/09/28 22:57:41;;;;;;;5.18;2.10;;;;;;;;;;10076560;28;20071;-69
2022/09/28 23:02:39;;;;;;;4.45;1.70;;;;;;;;;;10081878;28;20536;-69
2022/09/28 23:07:38;;;;;;;3.90;2.10;;;;;;;;;;10079874;28;20090;-69
2022/09/28 23:12:37;;;;;;;5.45;1.73;;;;;;;;;;10075125;28;20494;-69
2022/09/28 23:17:35;;;;;;;4.68;2.25;;;;;;;;;;10081302;28;20075;-68
2022/09/28 23:22:34;;;;;;;4.07;1.83;;;;;;;;;;10087413;28;20262;-67
2022/09/28 23:27:32;;;;;;;4.43;1.88;;;;;;;;;;10090429;28;20052;-69
2022/09/28 23:32:31;;;;;;;4.15;2.10;;;;;;;;;;10062770;28;20063;-68
2022/09/28 23:37:30;;;;;;;5.25;2.35;;;;;;;;;;10081975;28;20521;-68
2022/09/28 23:42:28;;;;;;;2.50;1.73;;;;;;;;;;10085647;28;20572;-68
2022/09/28 23:47:26;;;;;;;5.22;1.65;;;;;;;;;;10079138;28;20071;-68
2022/09/28 23:52:26;;;;;;;3.45;1.73;;;;;;;;;;10085405;28;20087;-69
2022/09/28 23:57:24;;;;;;;2.55;1.77;;;;;;;;;;10083956;28;20047;-68
